PWSweather.com
Personal Weather Stations
Station Observations
WISCHPK61
Green Bay Schmitt Park, Green Bay, WI 54311

Green Bay Schmitt ParkGreen Bay, WI 54311

Lat: 44.514277, Lon: -87.935067

Elevation: 735

Station Type: Acu Rite Pro Weather Center model 02032C

http://greenbayweathercam.com

High Low Average
Temperature 45.8°F7.7°C 3.7°F-15.7°C 22.2°F-5.4°C
Dew Point 42.2°F5.7°C 0.9°F-17.3°C 19.8°F-6.8°C
Winds 1.2 mph 1.9 kmh Calm Calm Calm SCalm S
Wind Gusts 2.3 mph3.7 kmh -- --
Humidity 99% 52% 91%
Pressure 29.55 in1000.7 mb 29.39 in995.3 mb -
Precipitation 0.10 in2.5 mm - -
Hour Temp Dew Point Humidity Winds Wind Gusts Pressure Precip Precip Rate Daily Precip Total
12:00 AM 7.3°F-13.7°C 7.1°F-13.8°C 99% Calm Calm -- 29.56 in1001.0 mb - 0.00 in0.0 mm 0.00 in0.0 mm
01:00 AM 7.0°F-13.9°C 1.3°F-17.1°C 77% Calm Calm -- 29.55 in1000.7 mb - 0.00 in0.0 mm 0.00 in0.0 mm
02:00 AM 5.5°F-14.7°C 5.3°F-14.8°C 99% Calm Calm -- 29.54 in1000.3 mb - 0.00 in0.0 mm 0.00 in0.0 mm
03:00 AM 5.2°F-14.9°C 1.2°F-17.1°C 83% Calm Calm -- 29.53 in1000.0 mb - 0.00 in0.0 mm 0.00 in0.0 mm
04:00 AM 5.0°F-15.0°C 4.8°F-15.1°C 99% Calm Calm -- 29.50 in999.0 mb - 0.00 in0.0 mm 0.00 in0.0 mm
05:00 AM 3.7°F-15.7°C 0.9°F-17.3°C 88% Calm Calm -- 29.49 in998.6 mb - 0.00 in0.0 mm 0.00 in0.0 mm
06:00 AM 3.9°F-15.6°C 3.7°F-15.7°C 99% Calm Calm -- 29.48 in998.3 mb - 0.00 in0.0 mm 0.00 in0.0 mm
07:00 AM 4.1°F-15.5°C 3.9°F-15.6°C 99% Calm Calm -- 29.49 in998.6 mb - 0.00 in0.0 mm 0.00 in0.0 mm
08:00 AM 7.2°F-13.8°C 3.4°F-15.9°C 84% Calm Calm -- 29.48 in998.3 mb - 0.00 in0.0 mm 0.00 in0.0 mm
09:00 AM 13.0°F-10.6°C 8.8°F-12.9°C 83% Calm Calm -- 29.49 in998.6 mb - 0.00 in0.0 mm 0.00 in0.0 mm
10:00 AM 27.5°F-2.5°C 27.3°F-2.6°C 99% Calm Calm -- 29.49 in998.6 mb - 0.00 in0.0 mm 0.00 in0.0 mm
11:00 AM 28.2°F-2.1°C 27.9°F-2.3°C 99% Calm Calm -- 29.49 in998.6 mb - 0.00 in0.0 mm 0.00 in0.0 mm
12:00 PM 35.8°F2.1°C 35.5°F1.9°C 99% 1.2 mph NW1.9 kmh NW 2.3 mph3.7 kmh 29.46 in997.6 mb - 0.00 in0.0 mm 0.00 in0.0 mm
01:00 PM 44.4°F6.9°C 36.6°F2.6°C 74% Calm Calm -- 29.45 in997.3 mb - 0.00 in0.0 mm 0.00 in0.0 mm
02:00 PM 42.5°F5.8°C 42.2°F5.7°C 99% Calm Calm -- 29.43 in996.6 mb - 0.02 in0.5 mm 0.02 in0.5 mm
03:00 PM 45.8°F7.7°C 33.9°F1.1°C 63% Calm Calm -- 29.41 in995.9 mb - 0.04 in1.0 mm 0.06 in1.5 mm
04:00 PM 39.6°F4.2°C 39.4°F4.1°C 99% Calm Calm -- 29.40 in995.6 mb - 0.04 in1.0 mm 0.10 in2.5 mm
05:00 PM 35.2°F1.8°C 34.9°F1.6°C 99% Calm Calm -- 29.40 in995.6 mb - 0.00 in0.0 mm 0.10 in2.5 mm
06:00 PM 33.3°F0.7°C 17.5°F-8.1°C 52% Calm Calm -- 29.40 in995.6 mb - 0.00 in0.0 mm 0.10 in2.5 mm
07:00 PM 28.9°F-1.7°C 28.7°F-1.8°C 99% Calm Calm -- 29.39 in995.3 mb - 0.00 in0.0 mm 0.10 in2.5 mm
08:00 PM 25.8°F-3.4°C 25.6°F-3.6°C 99% Calm Calm -- 29.41 in995.9 mb - 0.00 in0.0 mm 0.10 in2.5 mm
09:00 PM 24.3°F-4.3°C 24.1°F-4.4°C 99% Calm Calm -- 29.42 in996.3 mb - 0.00 in0.0 mm 0.10 in2.5 mm
10:00 PM 23.5°F-4.7°C 23.3°F-4.8°C 99% Calm Calm -- 29.41 in995.9 mb - 0.00 in0.0 mm 0.10 in2.5 mm
11:00 PM 22.6°F-5.2°C 22.4°F-5.3°C 99% Calm Calm -- 29.41 in995.9 mb - 0.00 in0.0 mm 0.10 in2.5 mm